createdAt,value
2022-08-26T00:00:50.282Z,50.5
2022-08-26T00:03:50.303Z,50.5
2022-08-26T00:06:50.255Z,50.5
2022-08-26T00:09:50.249Z,50.5
2022-08-26T00:12:50.255Z,50.5
2022-08-26T00:15:50.250Z,50.5
2022-08-26T00:18:50.269Z,50.5
2022-08-26T00:21:50.258Z,50.5
2022-08-26T00:24:50.255Z,50.5
2022-08-26T00:27:50.273Z,50.5
2022-08-26T00:30:51.585Z,51
2022-08-26T00:33:50.258Z,51
2022-08-26T00:36:51.944Z,51
2022-08-26T00:39:50.374Z,51
2022-08-26T00:42:50.255Z,51
2022-08-26T00:45:50.314Z,51
2022-08-26T00:48:50.269Z,51
2022-08-26T00:51:50.259Z,51
2022-08-26T00:54:50.251Z,51
2022-08-26T00:57:50.276Z,51
2022-08-26T01:00:50.274Z,51
2022-08-26T01:03:50.271Z,51
2022-08-26T01:06:50.250Z,51
2022-08-26T01:09:50.268Z,51
2022-08-26T01:12:50.247Z,51
2022-08-26T01:15:50.260Z,51.5
2022-08-26T01:18:50.264Z,51.5
2022-08-26T01:21:50.254Z,51.5
2022-08-26T01:24:50.249Z,51.5
2022-08-26T01:27:50.258Z,51.5
2022-08-26T01:30:50.299Z,51.5
2022-08-26T01:33:50.282Z,51.5
2022-08-26T01:36:51.461Z,51.5
2022-08-26T01:39:50.321Z,51.5
2022-08-26T01:42:50.265Z,51.5
2022-08-26T01:45:50.313Z,51.5
2022-08-26T01:48:52.333Z,51.5
2022-08-26T01:51:50.263Z,51.5
2022-08-26T01:54:50.417Z,51.5
2022-08-26T01:57:50.270Z,51.5
2022-08-26T02:00:50.373Z,51.5
2022-08-26T02:03:50.275Z,51.5
2022-08-26T02:06:50.269Z,51.5
2022-08-26T02:09:50.265Z,51.5
2022-08-26T02:12:50.264Z,51.5
2022-08-26T02:15:50.268Z,51.5
2022-08-26T02:18:50.286Z,52
2022-08-26T02:21:51.105Z,52.5
2022-08-26T02:24:50.262Z,52.5
2022-08-26T02:27:50.269Z,52.5
2022-08-26T02:30:50.263Z,52.5
2022-08-26T02:33:50.276Z,52.5
2022-08-26T02:36:50.764Z,52.5
2022-08-26T02:39:50.261Z,52.5
2022-08-26T02:42:50.267Z,52.5
2022-08-26T02:45:50.257Z,52.5
2022-08-26T02:48:50.276Z,52.5
2022-08-26T02:51:50.261Z,52.5
2022-08-26T02:54:50.269Z,52.5
2022-08-26T02:57:50.269Z,52.5
2022-08-26T03:00:52.675Z,52.5
2022-08-26T03:03:50.276Z,52.5
2022-08-26T03:06:52.814Z,52.5
2022-08-26T03:09:50.265Z,52.5
2022-08-26T03:12:50.263Z,52.5
2022-08-26T03:15:50.284Z,53
2022-08-26T03:18:52.127Z,53
2022-08-26T03:21:50.285Z,53
2022-08-26T03:24:50.270Z,53
2022-08-26T03:27:50.273Z,53
2022-08-26T03:30:50.283Z,53
2022-08-26T03:33:50.296Z,53
2022-08-26T03:36:50.281Z,53
2022-08-26T03:39:50.295Z,53
2022-08-26T03:42:50.277Z,53
2022-08-26T03:45:50.274Z,53
2022-08-26T03:48:50.299Z,53
2022-08-26T03:51:50.269Z,53.5
2022-08-26T03:54:50.281Z,53.5
2022-08-26T03:57:50.274Z,53.5
2022-08-26T04:00:51.436Z,53.5
2022-08-26T04:03:50.293Z,53
2022-08-26T04:06:50.312Z,53
2022-08-26T04:09:50.283Z,53.5
2022-08-26T04:12:50.285Z,53.5
2022-08-26T04:15:50.325Z,53.5
2022-08-26T04:18:50.293Z,53.5
2022-08-26T04:21:50.285Z,53.5
2022-08-26T04:24:50.296Z,53.5
2022-08-26T04:27:50.286Z,53.5
2022-08-26T04:30:50.279Z,53.5
2022-08-26T04:33:50.289Z,53.5
2022-08-26T04:36:50.286Z,53.5
2022-08-26T04:39:50.300Z,53.5
2022-08-26T04:42:50.287Z,54
2022-08-26T04:45:50.285Z,54
2022-08-26T04:48:50.298Z,54
2022-08-26T04:51:50.287Z,54
2022-08-26T04:54:50.290Z,54
2022-08-26T04:57:50.287Z,54
2022-08-26T05:00:50.284Z,54
2022-08-26T05:03:50.408Z,54
2022-08-26T05:06:50.290Z,54
2022-08-26T05:09:50.293Z,54
2022-08-26T05:12:50.295Z,54
2022-08-26T05:15:50.300Z,54
2022-08-26T05:18:50.313Z,54
2022-08-26T05:21:50.300Z,54
2022-08-26T05:24:50.292Z,54
2022-08-26T05:27:50.294Z,54
2022-08-26T05:30:50.318Z,54
2022-08-26T05:33:50.299Z,54
2022-08-26T05:36:50.296Z,54
2022-08-26T05:39:51.319Z,54
2022-08-26T05:42:50.294Z,54
2022-08-26T05:45:50.286Z,54
2022-08-26T05:48:50.315Z,54
2022-08-26T05:51:50.311Z,54
2022-08-26T05:54:50.294Z,54
2022-08-26T05:57:50.299Z,54
2022-08-26T06:00:50.292Z,54
2022-08-26T06:03:50.332Z,54.5
2022-08-26T06:06:50.300Z,54.5
2022-08-26T06:09:50.283Z,55
2022-08-26T06:12:50.289Z,54.5
2022-08-26T06:15:50.368Z,54.5
2022-08-26T06:18:50.317Z,54.5
2022-08-26T06:21:51.250Z,54.5
2022-08-26T06:24:50.303Z,55
2022-08-26T06:27:50.293Z,55
2022-08-26T06:30:50.305Z,55
2022-08-26T06:33:50.324Z,55
2022-08-26T06:36:50.294Z,55
2022-08-26T06:39:51.237Z,55
2022-08-26T06:42:50.297Z,55
2022-08-26T06:45:50.321Z,55
2022-08-26T06:48:50.305Z,55
2022-08-26T06:51:50.303Z,55
2022-08-26T06:54:50.293Z,55
2022-08-26T06:57:50.299Z,55
2022-08-26T07:00:50.292Z,55
2022-08-26T07:03:50.311Z,55
2022-08-26T07:06:50.353Z,55
2022-08-26T07:09:52.401Z,55
2022-08-26T07:12:50.319Z,55
2022-08-26T07:15:50.405Z,55
2022-08-26T07:18:50.330Z,55
2022-08-26T07:21:50.332Z,55
2022-08-26T07:24:50.322Z,55
2022-08-26T07:27:53.916Z,55
2022-08-26T07:30:50.404Z,55
2022-08-26T07:33:50.355Z,55
2022-08-26T07:36:50.320Z,55.5
2022-08-26T07:39:50.347Z,55.5
2022-08-26T07:42:50.321Z,55.5
2022-08-26T07:45:50.373Z,55.5
2022-08-26T07:48:50.334Z,55.5
2022-08-26T07:51:50.329Z,55.5
2022-08-26T07:54:50.357Z,55.5
2022-08-26T07:57:50.370Z,55
2022-08-26T08:00:50.352Z,55
2022-08-26T08:03:50.478Z,55
2022-08-26T08:06:50.391Z,54.5
2022-08-26T08:09:50.381Z,54.5
2022-08-26T08:12:50.394Z,54
2022-08-26T08:15:50.443Z,54
2022-08-26T08:18:50.409Z,53.5
2022-08-26T08:21:50.391Z,53.5
2022-08-26T08:24:52.946Z,53.5
2022-08-26T08:27:50.378Z,53
2022-08-26T08:30:50.387Z,53
2022-08-26T08:33:50.765Z,52
2022-08-26T08:36:50.396Z,51.5
2022-08-26T08:39:50.435Z,51
2022-08-26T08:42:50.398Z,51
2022-08-26T08:45:50.420Z,50.5
2022-08-26T08:48:50.420Z,50.5
2022-08-26T08:51:50.393Z,50.5
2022-08-26T08:54:50.396Z,50
2022-08-26T08:57:50.397Z,50
2022-08-26T09:00:50.395Z,49.5
2022-08-26T09:03:50.421Z,49
2022-08-26T09:06:50.434Z,49
2022-08-26T09:09:50.406Z,49
2022-08-26T09:12:50.396Z,49
2022-08-26T09:15:50.405Z,49
2022-08-26T09:18:50.410Z,49
2022-08-26T09:21:53.393Z,49
2022-08-26T09:24:50.404Z,49
2022-08-26T09:27:50.724Z,49
2022-08-26T09:30:50.454Z,49
2022-08-26T09:33:50.402Z,48.5
2022-08-26T09:36:50.397Z,48.5
2022-08-26T09:39:50.475Z,48.5
2022-08-26T09:42:50.404Z,48.5
2022-08-26T09:45:51.626Z,47.5
2022-08-26T09:48:51.618Z,48
2022-08-26T09:51:50.405Z,48
2022-08-26T09:54:50.417Z,47.5
2022-08-26T09:57:50.407Z,47.5
2022-08-26T10:00:50.480Z,47
2022-08-26T10:03:50.474Z,47
2022-08-26T10:06:50.408Z,47
2022-08-26T10:09:50.507Z,46.5
2022-08-26T10:12:50.417Z,46
2022-08-26T10:15:50.863Z,45.5
2022-08-26T10:18:50.830Z,45.5
2022-08-26T10:21:52.229Z,45.5
2022-08-26T10:24:53.200Z,45.5
2022-08-26T10:27:53.532Z,45.5
2022-08-26T10:30:50.412Z,45.5
2022-08-26T10:33:51.230Z,46
2022-08-26T10:39:53.095Z,46
2022-08-26T10:42:50.422Z,46.5
2022-08-26T10:45:50.585Z,46.5
2022-08-26T10:48:50.418Z,46.5
2022-08-26T10:51:50.421Z,47
2022-08-26T10:54:50.437Z,47
2022-08-26T10:57:50.420Z,47
2022-08-26T11:00:50.448Z,47.5
2022-08-26T11:03:50.462Z,47.5
2022-08-26T11:06:50.422Z,47.5
2022-08-26T11:09:50.439Z,47.5
2022-08-26T11:12:50.426Z,48
2022-08-26T11:15:50.419Z,48
2022-08-26T11:18:51.379Z,48
2022-08-26T11:21:50.629Z,48
2022-08-26T11:24:50.433Z,49
2022-08-26T11:27:50.422Z,49
2022-08-26T11:30:54.314Z,49
2022-08-26T11:33:50.868Z,49
2022-08-26T11:36:50.429Z,49.5
2022-08-26T11:39:53.928Z,49.5
2022-08-26T11:42:50.424Z,49.5
2022-08-26T11:45:50.483Z,49.5
2022-08-26T11:48:50.420Z,49.5
2022-08-26T11:51:50.420Z,49.5
2022-08-26T11:54:50.436Z,49.5
2022-08-26T11:57:50.440Z,49.5
2022-08-26T12:00:50.432Z,50
2022-08-26T12:03:50.549Z,50
2022-08-26T12:06:50.476Z,50
2022-08-26T12:09:50.440Z,50
2022-08-26T12:12:50.455Z,50.5
2022-08-26T12:15:50.430Z,50.5
2022-08-26T12:18:50.430Z,50.5
2022-08-26T12:21:50.429Z,50.5
2022-08-26T12:24:50.426Z,51
2022-08-26T12:27:53.621Z,51
2022-08-26T12:30:50.432Z,51
2022-08-26T12:33:50.422Z,51
2022-08-26T12:36:50.489Z,51
2022-08-26T12:39:50.467Z,51
2022-08-26T12:42:50.430Z,51
2022-08-26T12:45:50.466Z,51
2022-08-26T12:48:50.435Z,51
2022-08-26T12:51:50.455Z,50.5
2022-08-26T12:54:53.547Z,50.5
2022-08-26T12:57:50.437Z,50.5
2022-08-26T13:00:50.545Z,50
2022-08-26T13:03:50.433Z,50
2022-08-26T13:06:50.440Z,50
2022-08-26T13:09:50.431Z,49.5
2022-08-26T13:12:50.443Z,49.5
2022-08-26T13:15:50.499Z,49.5
2022-08-26T13:18:50.430Z,49.5
2022-08-26T13:21:50.433Z,49.5
2022-08-26T13:24:50.431Z,49
2022-08-26T13:27:50.443Z,49
2022-08-26T13:30:50.442Z,48.5
2022-08-26T13:33:50.460Z,48.5
2022-08-26T13:36:50.433Z,48.5
2022-08-26T13:39:50.475Z,48.5
2022-08-26T13:42:50.448Z,48.5
2022-08-26T13:45:50.454Z,48.5
2022-08-26T13:48:50.443Z,48.5
2022-08-26T13:51:50.442Z,48.5
2022-08-26T13:54:50.468Z,47.5
2022-08-26T13:57:50.458Z,47.5
2022-08-26T14:00:50.463Z,47.5
2022-08-26T14:03:50.482Z,47.5
2022-08-26T14:06:50.441Z,47
2022-08-26T14:09:50.460Z,47
2022-08-26T14:12:50.455Z,47
2022-08-26T14:15:50.503Z,47
2022-08-26T14:18:50.972Z,47
2022-08-26T14:21:50.457Z,47
2022-08-26T14:24:50.473Z,47
2022-08-26T14:27:50.462Z,47
2022-08-26T14:30:50.461Z,47
2022-08-26T14:33:50.458Z,47
2022-08-26T14:36:50.463Z,47
2022-08-26T14:39:50.493Z,47
2022-08-26T14:42:52.844Z,47
2022-08-26T14:45:50.458Z,47
2022-08-26T14:48:50.440Z,47
2022-08-26T14:51:50.446Z,47
2022-08-26T14:54:52.791Z,47
2022-08-26T14:57:50.471Z,47
2022-08-26T15:00:50.472Z,47
2022-08-26T15:03:50.444Z,47
2022-08-26T15:06:50.468Z,47
2022-08-26T15:09:50.457Z,47
2022-08-26T15:12:50.473Z,47
2022-08-26T15:15:50.462Z,47
2022-08-26T15:18:50.451Z,47
2022-08-26T15:21:50.455Z,47
2022-08-26T15:24:51.728Z,47
2022-08-26T15:27:50.467Z,47
2022-08-26T15:30:50.469Z,47
2022-08-26T15:33:50.450Z,47.5
2022-08-26T15:36:50.474Z,47.5
2022-08-26T15:39:50.558Z,47.5
2022-08-26T15:42:54.455Z,48
2022-08-26T15:45:50.456Z,48
2022-08-26T15:48:50.453Z,48
2022-08-26T15:51:50.528Z,48.5
2022-08-26T15:54:50.503Z,48.5
2022-08-26T15:57:50.480Z,49
2022-08-26T16:00:50.449Z,49
2022-08-26T16:03:50.461Z,49.5
2022-08-26T16:06:50.598Z,49.5
2022-08-26T16:09:52.008Z,49.5
2022-08-26T16:12:50.508Z,49.5
2022-08-26T16:15:50.512Z,49.5
2022-08-26T16:18:50.458Z,50
2022-08-26T16:21:50.500Z,50
2022-08-26T16:24:50.471Z,50
2022-08-26T16:27:50.458Z,50.5
2022-08-26T16:30:50.487Z,50.5
2022-08-26T16:33:50.445Z,50.5
2022-08-26T16:36:50.466Z,50.5
2022-08-26T16:39:50.482Z,50.5
2022-08-26T16:42:50.477Z,50.5
2022-08-26T16:45:50.459Z,50.5
2022-08-26T16:48:50.459Z,50.5
2022-08-26T16:51:50.463Z,50.5
2022-08-26T16:54:50.467Z,50.5
2022-08-26T16:57:50.472Z,50.5
2022-08-26T17:00:50.463Z,50.5
2022-08-26T17:03:50.464Z,50.5
2022-08-26T17:06:50.456Z,50.5
2022-08-26T17:09:50.463Z,51
2022-08-26T17:12:50.470Z,51.5
2022-08-26T17:15:50.502Z,51.5
2022-08-26T17:18:50.460Z,51.5
2022-08-26T17:21:50.464Z,51.5
2022-08-26T17:24:50.469Z,51.5
2022-08-26T17:27:50.500Z,51.5
2022-08-26T17:30:50.517Z,51.5
2022-08-26T17:33:50.900Z,51.5
2022-08-26T17:36:50.458Z,51.5
2022-08-26T17:39:50.508Z,51.5
2022-08-26T17:42:50.472Z,51.5
2022-08-26T17:45:50.559Z,51.5
2022-08-26T17:48:50.472Z,51.5
2022-08-26T17:51:50.465Z,51.5
2022-08-26T17:54:50.473Z,51.5
2022-08-26T17:57:51.835Z,51.5
2022-08-26T18:00:50.479Z,52
2022-08-26T18:03:50.586Z,52
2022-08-26T18:06:50.466Z,52
2022-08-26T18:09:50.480Z,52
2022-08-26T18:12:50.467Z,52
2022-08-26T18:15:50.558Z,52
2022-08-26T18:18:50.477Z,52
2022-08-26T18:21:50.465Z,52
2022-08-26T18:24:52.848Z,52
2022-08-26T18:27:50.466Z,52
2022-08-26T18:30:50.521Z,52
2022-08-26T18:33:50.466Z,52
2022-08-26T18:36:50.477Z,52
2022-08-26T18:39:50.493Z,52
2022-08-26T18:42:54.085Z,52
2022-08-26T18:45:50.528Z,52.5
2022-08-26T18:48:51.115Z,52.5
2022-08-26T18:51:50.472Z,53
2022-08-26T18:54:50.483Z,53
2022-08-26T18:57:50.464Z,53
2022-08-26T19:00:50.461Z,53
2022-08-26T19:03:50.466Z,53
2022-08-26T19:06:50.484Z,53
2022-08-26T19:09:53.949Z,53
2022-08-26T19:12:51.993Z,53
2022-08-26T19:15:50.472Z,53
2022-08-26T19:18:50.487Z,53
2022-08-26T19:21:50.470Z,53
2022-08-26T19:24:50.487Z,53.5
2022-08-26T19:27:50.476Z,53.5
2022-08-26T19:30:53.073Z,53.5
2022-08-26T19:33:50.472Z,53.5
2022-08-26T19:36:50.491Z,53.5
2022-08-26T19:39:50.513Z,53.5
2022-08-26T19:42:50.478Z,53.5
2022-08-26T19:45:50.503Z,54
2022-08-26T19:48:51.752Z,54
2022-08-26T19:51:50.475Z,54
2022-08-26T19:54:50.488Z,54
2022-08-26T19:57:50.475Z,54
2022-08-26T20:00:50.547Z,54
2022-08-26T20:03:50.549Z,54
2022-08-26T20:06:50.775Z,54
2022-08-26T20:09:50.496Z,54
2022-08-26T20:12:50.472Z,54
2022-08-26T20:15:50.497Z,54
2022-08-26T20:18:50.534Z,54
2022-08-26T20:21:50.484Z,54
2022-08-26T20:24:50.493Z,54.5
2022-08-26T20:27:50.491Z,54.5
2022-08-26T20:30:50.491Z,54.5
2022-08-26T20:33:50.482Z,54.5
2022-08-26T20:36:50.489Z,54.5
2022-08-26T20:39:50.536Z,54.5
2022-08-26T20:42:50.489Z,54.5
2022-08-26T20:45:50.544Z,54.5
2022-08-26T20:48:50.505Z,54.5
2022-08-26T20:51:50.488Z,54.5
2022-08-26T20:54:50.497Z,54.5
2022-08-26T20:57:50.483Z,54.5
2022-08-26T21:00:50.537Z,54.5
2022-08-26T21:03:50.548Z,54.5
2022-08-26T21:06:52.529Z,54.5
2022-08-26T21:09:51.594Z,54.5
2022-08-26T21:12:50.502Z,54.5
2022-08-26T21:15:50.518Z,54.5
2022-08-26T21:18:50.505Z,54.5
2022-08-26T21:21:50.498Z,54.5
2022-08-26T21:24:50.513Z,54.5
2022-08-26T21:27:50.495Z,54.5
2022-08-26T21:30:50.493Z,54.5
2022-08-26T21:33:50.495Z,54.5
2022-08-26T21:36:50.498Z,55
2022-08-26T21:39:50.534Z,54.5
2022-08-26T21:42:50.505Z,55
2022-08-26T21:45:50.559Z,55
2022-08-26T21:48:51.005Z,55
2022-08-26T21:51:50.495Z,55
2022-08-26T21:54:50.504Z,55
2022-08-26T21:57:50.500Z,55
2022-08-26T22:00:50.510Z,55
2022-08-26T22:03:50.595Z,55
2022-08-26T22:06:50.517Z,55
2022-08-26T22:09:50.510Z,55
2022-08-26T22:12:50.514Z,55.5
2022-08-26T22:15:50.508Z,55.5
2022-08-26T22:18:50.521Z,55.5
2022-08-26T22:21:50.513Z,55.5
2022-08-26T22:24:50.527Z,55.5
2022-08-26T22:27:50.497Z,55.5
2022-08-26T22:30:50.514Z,55.5
2022-08-26T22:33:50.509Z,55.5
2022-08-26T22:36:50.527Z,55.5
2022-08-26T22:39:50.532Z,55.5
2022-08-26T22:42:55.489Z,55.5
2022-08-26T22:45:50.531Z,55.5
2022-08-26T22:48:53.895Z,55.5
2022-08-26T22:51:50.512Z,56
2022-08-26T22:54:50.523Z,56
2022-08-26T22:57:50.515Z,56
2022-08-26T23:00:50.551Z,56
2022-08-26T23:03:50.558Z,56
2022-08-26T23:06:50.516Z,56.5
2022-08-26T23:09:50.520Z,56.5
2022-08-26T23:12:50.520Z,56.5
2022-08-26T23:15:50.519Z,56.5
2022-08-26T23:18:50.523Z,56.5
2022-08-26T23:21:50.512Z,56.5
2022-08-26T23:24:50.540Z,56.5
2022-08-26T23:27:50.513Z,57.5
2022-08-26T23:30:50.526Z,57.5
2022-08-26T23:33:50.516Z,57.5
2022-08-26T23:36:50.534Z,57.5
2022-08-26T23:39:50.543Z,57.5
2022-08-26T23:42:50.530Z,57.5
2022-08-26T23:45:50.564Z,57.5
2022-08-26T23:48:50.533Z,57.5
2022-08-26T23:51:50.514Z,57.5
2022-08-26T23:54:50.544Z,57.5
2022-08-26T23:57:50.526Z,57.5
